Time;durP1;ratioP1;P1;durP2;ratioP2;P2;SDS_P1;SDS_P2;PMS_P1;PMS_P2;Temp;Humidity;BMP_temperature;BMP_pressure;BME280_temperature;BME280_humidity;BME280_pressure;Samples;Min_cycle;Max_cycle;Signal;HPM_P1;HPM_P2
2023/07/23 00:01:31;;;;;;;5.00;3.73;;;17.70;87.50;;;;;;5017246;28;20491;-69
2023/07/23 00:04:17;;;;;;;9.70;4.10;;;17.40;87.10;;;;;;5025278;28;20952;-69
2023/07/23 00:07:04;;;;;;;6.77;4.30;;;17.40;88.90;;;;;;5024607;28;20465;-69
2023/07/23 00:09:49;;;;;;;7.43;4.00;;;17.50;87.00;;;;;;5023914;28;20485;-69
2023/07/23 00:12:35;;;;;;;4.23;3.40;;;17.30;89.00;;;;;;5020920;28;20414;-70
2023/07/23 00:15:20;;;;;;;6.27;3.83;;;17.00;89.00;;;;;;5021982;28;20445;-70
2023/07/23 00:18:06;;;;;;;5.47;4.13;;;16.70;91.10;;;;;;5018051;28;20817;-69
2023/07/23 00:20:51;;;;;;;7.17;4.17;;;16.80;92.10;;;;;;5021459;28;20598;-69
2023/07/23 00:23:38;;;;;;;6.47;3.83;;;16.70;92.80;;;;;;5024807;28;20621;-71
2023/07/23 00:26:24;;;;;;;8.80;4.17;;;16.70;92.60;;;;;;5015296;28;20452;-70
2023/07/23 00:29:09;;;;;;;6.03;4.13;;;16.70;92.50;;;;;;5023919;28;20461;-69
2023/07/23 00:31:55;;;;;;;7.50;4.40;;;16.60;92.50;;;;;;5017745;28;20443;-69
2023/07/23 00:34:41;;;;;;;8.80;4.30;;;16.60;93.20;;;;;;5023794;28;20444;-69
2023/07/23 00:37:27;;;;;;;6.00;4.30;;;16.70;92.50;;;;;;5015984;28;20420;-69
2023/07/23 00:40:14;;;;;;;7.97;4.20;;;16.60;93.20;;;;;;5017305;28;20917;-69
2023/07/23 00:43:00;;;;;;;7.77;3.87;;;16.70;92.80;;;;;;5020631;28;20428;-70
2023/07/23 00:45:45;;;;;;;6.20;4.20;;;16.60;92.30;;;;;;5019030;28;20415;-69
2023/07/23 00:48:31;;;;;;;5.53;4.37;;;16.50;92.40;;;;;;5021964;28;21001;-69
2023/07/23 00:51:16;;;;;;;10.13;4.93;;;16.30;92.70;;;;;;5020471;28;20480;-70
2023/07/23 00:54:03;;;;;;;9.37;5.67;;;16.20;93.40;;;;;;5018368;28;20516;-70
2023/07/23 00:56:50;;;;;;;9.57;3.77;;;16.20;94.50;;;;;;5010620;28;20461;-70
2023/07/23 00:59:35;;;;;;;5.60;4.70;;;16.10;94.70;;;;;;5019369;28;20607;-71
2023/07/23 01:02:21;;;;;;;6.73;3.73;;;16.00;95.20;;;;;;5020562;28;20519;-69
2023/07/23 01:05:07;;;;;;;6.47;4.10;;;16.00;95.80;;;;;;5026890;28;20444;-69
2023/07/23 01:07:53;;;;;;;8.70;3.73;;;16.00;96.00;;;;;;5023419;28;20482;-71
2023/07/23 01:10:39;;;;;;;7.90;4.60;;;15.90;96.10;;;;;;5026288;28;20427;-71
2023/07/23 01:13:26;;;;;;;8.00;4.40;;;15.80;96.20;;;;;;5019262;28;20428;-69
2023/07/23 01:16:12;;;;;;;5.90;4.50;;;15.80;97.10;;;;;;5026303;28;20794;-69
2023/07/23 01:18:58;;;;;;;7.20;4.03;;;15.80;97.00;;;;;;5018157;28;20501;-69
2023/07/23 01:21:44;;;;;;;9.40;4.80;;;15.70;97.40;;;;;;5027030;28;20492;-70
2023/07/23 01:24:30;;;;;;;5.97;4.30;;;15.70;97.90;;;;;;5028474;28;20483;-70
2023/07/23 01:27:16;;;;;;;7.03;4.40;;;15.50;97.90;;;;;;5025821;28;20444;-70
2023/07/23 01:30:02;;;;;;;5.40;4.33;;;15.40;99.60;;;;;;5033937;28;20443;-70
2023/07/23 01:32:48;;;;;;;5.83;4.20;;;15.30;99.90;;;;;;5029629;28;20585;-69
2023/07/23 01:35:33;;;;;;;6.53;4.17;;;15.50;99.90;;;;;;5028200;28;21025;-71
2023/07/23 01:38:19;;;;;;;9.67;4.70;;;15.50;99.90;;;;;;5031500;28;20860;-69
2023/07/23 01:41:06;;;;;;;8.80;4.67;;;15.50;99.90;;;;;;5030232;28;20575;-70
2023/07/23 01:43:51;;;;;;;8.00;4.63;;;15.50;99.90;;;;;;5024183;28;20508;-69
2023/07/23 01:46:37;;;;;;;7.23;4.43;;;15.40;99.90;;;;;;5029672;28;20482;-70
2023/07/23 01:49:22;;;;;;;6.23;3.80;;;15.40;99.90;;;;;;5027999;28;20571;-71
2023/07/23 01:52:08;;;;;;;6.27;4.47;;;15.40;99.90;;;;;;5034022;28;20441;-71
2023/07/23 01:54:53;;;;;;;5.70;3.90;;;15.50;99.90;;;;;;5029323;28;20519;-71
2023/07/23 01:57:40;;;;;;;5.27;3.80;;;15.40;99.90;;;;;;5032286;28;20452;-70
2023/07/23 02:00:25;;;;;;;9.80;4.33;;;15.40;99.90;;;;;;5030119;28;20575;-70
2023/07/23 02:03:12;;;;;;;14.10;4.80;;;15.20;99.90;;;;;;5031764;28;20452;-70
2023/07/23 02:06:00;;;;;;;5.17;4.67;;;15.20;99.90;;;;;;5036256;28;20437;-70
2023/07/23 02:08:45;;;;;;;9.73;4.30;;;15.20;99.90;;;;;;5023823;28;20476;-69
2023/07/23 02:11:31;;;;;;;9.00;5.20;;;15.20;99.90;;;;;;5028470;28;20445;-69
2023/07/23 02:14:17;;;;;;;9.80;4.40;;;15.20;99.90;;;;;;5021574;28;20508;-69
2023/07/23 02:17:03;;;;;;;5.57;4.13;;;15.10;99.90;;;;;;5028237;28;20985;-69
2023/07/23 02:19:48;;;;;;;6.30;4.80;;;15.10;99.90;;;;;;5023090;28;20908;-70
2023/07/23 02:22:33;;;;;;;7.30;4.17;;;15.00;99.90;;;;;;5026737;28;20511;-70
2023/07/23 02:25:19;;;;;;;7.00;4.93;;;15.10;99.90;;;;;;5027846;28;20964;-70
2023/07/23 02:28:05;;;;;;;8.27;4.37;;;15.10;99.90;;;;;;5019657;28;20425;-69
2023/07/23 02:30:57;;;;;;;6.80;4.20;;;15.00;99.90;;;;;;5026401;28;20473;-69
2023/07/23 02:33:43;;;;;;;5.43;3.93;;;15.00;99.90;;;;;;5024200;28;20449;-69
2023/07/23 02:36:28;;;;;;;5.90;4.87;;;15.00;99.90;;;;;;5025640;28;20873;-70
2023/07/23 02:39:13;;;;;;;8.97;4.23;;;14.90;99.90;;;;;;5025401;28;20416;-69
2023/07/23 02:41:59;;;;;;;11.97;5.40;;;14.80;99.90;;;;;;5024169;28;20559;-70
2023/07/23 02:44:44;;;;;;;7.20;4.73;;;14.80;99.90;;;;;;5018920;28;20550;-69
2023/07/23 02:47:31;;;;;;;6.30;5.10;;;14.70;99.90;;;;;;5026391;28;21289;-71
2023/07/23 02:50:17;;;;;;;6.50;4.70;;;14.80;99.90;;;;;;5035175;22;20590;-72
2023/07/23 02:53:02;;;;;;;6.90;4.30;;;14.60;99.90;;;;;;5002754;28;20521;-72
2023/07/23 02:55:48;;;;;;;7.83;4.40;;;14.60;99.90;;;;;;5007725;28;20809;-73
2023/07/23 02:58:34;;;;;;;6.07;4.13;;;14.60;99.90;;;;;;5006098;28;20496;-72
2023/07/23 03:01:19;;;;;;;4.93;4.30;;;14.50;99.90;;;;;;5006602;28;20440;-73
2023/07/23 03:04:06;;;;;;;7.93;5.07;;;14.60;99.90;;;;;;5002738;28;20429;-72
2023/07/23 03:06:51;;;;;;;9.60;5.20;;;14.60;99.90;;;;;;5007780;28;20448;-73
2023/07/23 03:09:37;;;;;;;8.63;5.47;;;14.50;99.90;;;;;;5013631;28;20448;-72
2023/07/23 03:12:22;;;;;;;7.20;4.73;;;14.40;99.90;;;;;;5006123;28;20449;-73
2023/07/23 03:15:09;;;;;;;8.03;5.10;;;14.50;99.90;;;;;;5010017;28;20450;-73
2023/07/23 03:17:54;;;;;;;10.50;4.70;;;14.50;99.90;;;;;;5005312;28;20428;-73
2023/07/23 03:20:41;;;;;;;6.50;4.47;;;14.50;99.90;;;;;;5004881;28;21437;-72
2023/07/23 03:23:27;;;;;;;6.27;4.50;;;14.50;99.90;;;;;;5005853;28;20554;-72
2023/07/23 03:26:12;;;;;;;11.10;5.47;;;14.50;99.90;;;;;;5002759;28;20494;-73
2023/07/23 03:28:57;;;;;;;6.67;5.37;;;14.30;99.90;;;;;;5005095;28;20445;-72
2023/07/23 03:31:43;;;;;;;6.10;4.53;;;14.40;99.90;;;;;;5009177;28;20443;-72
2023/07/23 03:34:28;;;;;;;8.57;4.80;;;14.30;99.90;;;;;;5009878;28;20428;-73
2023/07/23 03:37:16;;;;;;;7.83;4.83;;;14.20;99.90;;;;;;4999647;28;20416;-73
2023/07/23 03:40:01;;;;;;;10.93;4.97;;;14.10;99.90;;;;;;5002243;28;20785;-72
2023/07/23 03:42:47;;;;;;;9.30;4.73;;;14.20;99.90;;;;;;5006097;28;20454;-73
2023/07/23 03:45:32;;;;;;;9.60;4.60;;;14.30;99.90;;;;;;5009914;28;20768;-72
2023/07/23 03:48:18;;;;;;;7.90;4.37;;;14.20;99.90;;;;;;5011633;28;20472;-73
2023/07/23 03:51:04;;;;;;;23.10;5.33;;;14.10;99.90;;;;;;5003244;28;20464;-72
2023/07/23 03:53:50;;;;;;;8.77;4.87;;;14.20;99.90;;;;;;5006087;28;20428;-73
2023/07/23 03:56:36;;;;;;;5.93;4.40;;;14.20;99.90;;;;;;5003615;28;20427;-73
2023/07/23 03:59:21;;;;;;;6.33;4.70;;;14.20;99.90;;;;;;5005847;28;20892;-72
2023/07/23 04:02:07;;;;;;;10.47;4.90;;;14.20;99.90;;;;;;5004961;28;20439;-73
2023/07/23 04:04:53;;;;;;;10.33;4.10;;;14.10;99.90;;;;;;5006550;28;21658;-73
2023/07/23 04:07:38;;;;;;;7.77;4.90;;;14.20;99.90;;;;;;5012253;28;20479;-73
2023/07/23 04:10:25;;;;;;;6.93;4.17;;;14.10;99.90;;;;;;5005916;28;20473;-73
2023/07/23 04:13:11;;;;;;;9.07;5.00;;;14.10;99.90;;;;;;4997102;28;20449;-71
2023/07/23 04:15:58;;;;;;;7.33;4.80;;;14.10;99.90;;;;;;5001203;28;20429;-72
2023/07/23 04:18:48;;;;;;;6.70;4.47;;;14.20;99.90;;;;;;5007181;28;20435;-72
2023/07/23 04:21:33;;;;;;;6.80;5.23;;;14.20;99.90;;;;;;5004143;28;20556;-73
2023/07/23 04:24:18;;;;;;;5.80;4.43;;;14.30;99.90;;;;;;5009675;28;20962;-72
2023/07/23 04:27:06;;;;;;;8.50;4.73;;;14.30;99.90;;;;;;5003498;28;20428;-72
2023/07/23 04:29:51;;;;;;;6.53;4.77;;;14.30;99.90;;;;;;5003641;28;20481;-72
2023/07/23 04:32:36;;;;;;;6.63;4.97;;;14.30;99.90;;;;;;5007956;28;20423;-74
2023/07/23 04:35:22;;;;;;;6.80;4.77;;;14.40;99.90;;;;;;5001943;28;20540;-74
2023/07/23 04:38:08;;;;;;;5.47;4.27;;;14.40;99.90;;;;;;5006950;28;20432;-74
2023/07/23 04:40:53;;;;;;;7.33;4.50;;;14.50;99.90;;;;;;5009332;28;21002;-74
2023/07/23 04:43:41;;;;;;;6.63;4.80;;;14.60;99.90;;;;;;5004094;28;20420;-73
2023/07/23 04:46:27;;;;;;;6.80;5.20;;;14.60;99.90;;;;;;5010245;28;21188;-74
2023/07/23 04:49:12;;;;;;;6.80;5.00;;;14.60;99.90;;;;;;5010490;28;20526;-74
2023/07/23 04:51:58;;;;;;;8.80;5.10;;;14.70;99.90;;;;;;5006384;28;22097;-74
2023/07/23 04:54:44;;;;;;;10.17;5.30;;;14.70;99.90;;;;;;5011298;28;20839;-73
2023/07/23 04:57:29;;;;;;;6.63;4.30;;;14.90;99.90;;;;;;5009602;28;20469;-74
2023/07/23 05:00:17;;;;;;;8.47;4.80;;;14.90;99.90;;;;;;5004778;28;20532;-73
2023/07/23 05:03:02;;;;;;;6.47;4.80;;;15.00;99.90;;;;;;5005475;28;20445;-74
2023/07/23 05:05:50;;;;;;;9.13;5.33;;;15.10;99.90;;;;;;5005249;28;20449;-73
2023/07/23 05:08:36;;;;;;;6.77;5.13;;;15.30;99.90;;;;;;5007483;28;20810;-73
2023/07/23 05:11:21;;;;;;;6.53;5.20;;;15.30;99.90;;;;;;5007669;28;20531;-73
2023/07/23 05:14:07;;;;;;;9.33;5.40;;;15.50;99.90;;;;;;5011286;28;20419;-74
2023/07/23 05:16:53;;;;;;;8.00;4.70;;;15.70;99.90;;;;;;5007898;28;20444;-74
2023/07/23 05:19:39;;;;;;;11.03;4.47;;;15.80;99.90;;;;;;5003666;28;20495;-74
2023/07/23 05:22:25;;;;;;;6.60;4.27;;;16.10;99.90;;;;;;5000573;28;20982;-74
2023/07/23 05:25:11;;;;;;;5.07;4.00;;;16.50;99.90;;;;;;5005249;28;20937;-74
2023/07/23 05:27:56;;;;;;;5.20;3.93;;;16.90;99.90;;;;;;5008674;28;20440;-74
2023/07/23 05:30:42;;;;;;;8.60;4.00;;;17.40;99.90;;;;;;5001903;28;20481;-75
2023/07/23 05:33:30;;;;;;;7.10;3.13;;;17.80;99.90;;;;;;5008765;28;20502;-74
2023/07/23 05:36:15;;;;;;;4.63;3.57;;;18.00;99.90;;;;;;5001702;28;20581;-74
2023/07/23 05:39:00;;;;;;;9.43;4.27;;;18.30;98.30;;;;;;5004507;28;20450;-74
2023/07/23 05:41:46;;;;;;;6.67;3.60;;;18.40;94.50;;;;;;5000214;28;21032;-73
2023/07/23 05:44:32;;;;;;;7.33;3.77;;;18.60;90.80;;;;;;5009480;28;20454;-74
2023/07/23 05:47:17;;;;;;;10.20;3.40;;;18.70;89.10;;;;;;5009105;28;20496;-74
2023/07/23 05:50:06;;;;;;;5.70;3.10;;;18.70;89.20;;;;;;5005255;28;20528;-74
2023/07/23 05:52:51;;;;;;;4.50;3.40;;;18.70;86.10;;;;;;5009276;28;20423;-74
2023/07/23 05:55:37;;;;;;;6.43;3.53;;;18.70;85.60;;;;;;5007192;28;20465;-73
2023/07/23 05:58:22;;;;;;;4.60;3.40;;;18.70;86.90;;;;;;5012089;28;20445;-74
2023/07/23 06:01:08;;;;;;;5.00;3.37;;;18.70;84.00;;;;;;5003818;28;20437;-73
2023/07/23 06:03:53;;;;;;;6.67;3.43;;;18.70;82.80;;;;;;5012071;28;20428;-74
2023/07/23 06:06:40;;;;;;;8.00;3.90;;;18.80;84.70;;;;;;5006798;28;20445;-73
2023/07/23 06:09:26;;;;;;;6.50;2.60;;;18.80;83.20;;;;;;5008466;28;20829;-74
2023/07/23 06:12:11;;;;;;;12.00;4.07;;;18.90;83.00;;;;;;5011975;28;20531;-74
2023/07/23 06:14:57;;;;;;;4.93;3.23;;;18.90;82.10;;;;;;5004806;28;20962;-74
2023/07/23 06:17:42;;;;;;;5.67;3.07;;;18.90;83.90;;;;;;5009549;28;20567;-73
2023/07/23 06:20:28;;;;;;;4.30;2.60;;;18.90;88.20;;;;;;5010103;28;20440;-74
2023/07/23 06:23:14;;;;;;;6.43;3.63;;;18.80;85.00;;;;;;5003233;28;20454;-74
2023/07/23 06:26:00;;;;;;;13.63;3.03;;;18.90;84.20;;;;;;5005023;28;20454;-74
2023/07/23 06:28:46;;;;;;;6.47;4.00;;;18.90;87.10;;;;;;5011162;28;20444;-74
2023/07/23 06:31:31;;;;;;;8.17;3.13;;;18.90;91.50;;;;;;5004291;28;21094;-73
2023/07/23 06:34:17;;;;;;;5.47;3.47;;;18.90;89.30;;;;;;5011074;28;20457;-74
2023/07/23 06:37:02;;;;;;;4.77;2.87;;;19.00;85.80;;;;;;5008935;28;20441;-73
2023/07/23 06:39:49;;;;;;;4.27;2.43;;;19.30;79.90;;;;;;5004917;28;20445;-74
2023/07/23 06:42:35;;;;;;;3.80;2.20;;;19.50;78.50;;;;;;5010829;28;20441;-74
2023/07/23 06:45:20;;;;;;;3.03;2.20;;;19.70;75.90;;;;;;5009624;28;20950;-73
2023/07/23 06:48:06;;;;;;;4.47;3.07;;;19.90;73.60;;;;;;5002684;28;20445;-74
2023/07/23 06:50:51;;;;;;;8.10;4.23;;;20.00;72.70;;;;;;5009667;28;20481;-74
2023/07/23 06:53:37;;;;;;;8.93;2.60;;;20.20;70.50;;;;;;5009458;28;20540;-74
2023/07/23 06:56:24;;;;;;;6.20;2.33;;;20.40;67.30;;;;;;5003120;28;20535;-74
2023/07/23 06:59:09;;;;;;;4.70;2.57;;;20.50;66.40;;;;;;5002927;28;20441;-74
2023/07/23 07:01:55;;;;;;;3.17;2.20;;;20.60;65.30;;;;;;5007136;28;21510;-74
2023/07/23 07:04:40;;;;;;;6.20;2.57;;;20.80;66.40;;;;;;5008796;28;20450;-74
2023/07/23 07:07:26;;;;;;;4.20;2.37;;;21.00;63.60;;;;;;5009629;28;20449;-74
2023/07/23 07:10:12;;;;;;;7.40;3.03;;;21.00;62.00;;;;;;5004966;28;20834;-74
2023/07/23 07:13:00;;;;;;;5.80;4.10;;;21.10;63.80;;;;;;5007243;28;20974;-74
2023/07/23 07:15:45;;;;;;;5.03;2.30;;;21.20;62.60;;;;;;5001962;28;20581;-74
2023/07/23 07:18:30;;;;;;;3.63;1.83;;;21.20;61.00;;;;;;5004677;28;20429;-74
2023/07/23 07:21:16;;;;;;;4.23;2.00;;;21.40;61.00;;;;;;5005724;28;20536;-73
2023/07/23 07:24:02;;;;;;;2.60;1.83;;;21.50;60.20;;;;;;5009625;28;20440;-74
2023/07/23 07:26:48;;;;;;;4.17;1.97;;;21.40;59.50;;;;;;5002703;28;20937;-73
2023/07/23 07:29:35;;;;;;;3.90;1.70;;;21.50;59.50;;;;;;5010335;28;20442;-74
2023/07/23 07:32:20;;;;;;;3.20;2.30;;;21.60;62.60;;;;;;5005324;28;20524;-74
2023/07/23 07:35:06;;;;;;;3.40;1.63;;;21.80;60.60;;;;;;5000545;28;20949;-74
2023/07/23 07:37:52;;;;;;;3.23;1.83;;;21.80;56.70;;;;;;5012047;28;20448;-73
2023/07/23 07:40:39;;;;;;;6.00;1.93;;;21.80;57.30;;;;;;5007794;28;20489;-74
2023/07/23 07:43:25;;;;;;;3.30;2.40;;;21.80;57.00;;;;;;5009923;28;20492;-74
2023/07/23 07:46:12;;;;;;;3.50;2.10;;;21.80;58.20;;;;;;5005651;28;20446;-74
2023/07/23 07:48:57;;;;;;;7.53;2.33;;;21.90;57.60;;;;;;5007831;28;20602;-74
2023/07/23 07:51:44;;;;;;;3.37;2.30;;;21.90;59.10;;;;;;5010520;28;20475;-73
2023/07/23 07:54:29;;;;;;;3.67;2.30;;;22.00;57.80;;;;;;5005054;28;21851;-76
2023/07/23 07:57:15;;;;;;;3.40;2.23;;;22.10;56.60;;;;;;5012844;28;20438;-74
2023/07/23 08:00:03;;;;;;;3.07;2.17;;;22.10;57.00;;;;;;5001765;28;20469;-72
2023/07/23 08:02:51;;;;;;;4.80;2.50;;;22.20;56.80;;;;;;4992106;28;20474;-71
2023/07/23 08:05:38;;;;;;;11.53;2.50;;;22.20;56.20;;;;;;5001047;28;20475;-71
2023/07/23 08:08:26;;;;;;;20.03;4.10;;;22.30;57.40;;;;;;5005018;28;20454;-71
2023/07/23 08:11:12;;;;;;;8.80;2.00;;;22.30;57.60;;;;;;5006845;28;20465;-73
2023/07/23 08:13:59;;;;;;;3.37;2.03;;;22.40;57.00;;;;;;5013414;28;20441;-72
2023/07/23 08:16:45;;;;;;;4.60;2.93;;;22.50;57.80;;;;;;5003133;28;20546;-72
2023/07/23 08:19:32;;;;;;;3.10;2.23;;;22.60;56.10;;;;;;5005727;28;20454;-72
2023/07/23 08:22:18;;;;;;;2.53;1.30;;;22.70;55.70;;;;;;4998581;28;20421;-72
2023/07/23 08:25:04;;;;;;;3.97;1.97;;;22.70;56.20;;;;;;4995376;28;20423;-72
2023/07/23 08:27:52;;;;;;;4.40;2.50;;;22.60;54.80;;;;;;4998427;28;20606;-72
2023/07/23 08:30:38;;;;;;;3.03;1.93;;;22.50;56.00;;;;;;5006208;28;20481;-72
2023/07/23 08:33:25;;;;;;;4.43;1.83;;;22.60;58.10;;;;;;4999150;28;20536;-72
2023/07/23 08:36:13;;;;;;;5.43;2.67;;;22.70;55.20;;;;;;5000665;28;21135;-72
2023/07/23 08:38:59;;;;;;;3.83;1.80;;;22.80;56.30;;;;;;5009446;28;20438;-73
2023/07/23 08:42:06;;;;;;;3.87;2.20;;;22.90;56.40;;;;;;5004234;28;20539;-72
2023/07/23 08:45:28;;;;;;;7.73;2.17;;;22.90;53.20;;;;;;5006511;28;20499;-72
2023/07/23 08:48:16;;;;;;;2.83;1.80;;;22.90;55.10;;;;;;5005694;28;20810;-72
2023/07/23 08:51:03;;;;;;;4.27;2.47;;;23.00;55.10;;;;;;5004170;28;20533;-72
2023/07/23 08:53:51;;;;;;;4.50;3.47;;;23.00;52.70;;;;;;4999846;28;21045;-72
2023/07/23 08:56:38;;;;;;;6.83;2.63;;;23.00;52.30;;;;;;5005926;28;20921;-72
2023/07/23 08:59:26;;;;;;;4.23;1.87;;;23.10;52.80;;;;;;5005665;28;20441;-72
2023/07/23 09:02:12;;;;;;;3.73;1.73;;;23.10;53.20;;;;;;5004244;28;20850;-72
2023/07/23 09:04:57;;;;;;;4.37;2.00;;;23.10;55.70;;;;;;4994559;28;20458;-72
2023/07/23 09:07:43;;;;;;;2.90;2.03;;;23.20;53.80;;;;;;4996023;28;21037;-72
2023/07/23 09:10:30;;;;;;;3.33;1.60;;;23.30;52.90;;;;;;4995674;28;20463;-72
2023/07/23 09:13:15;;;;;;;2.77;1.43;;;23.10;51.10;;;;;;5000042;28;20855;-72
2023/07/23 09:16:01;;;;;;;5.50;2.73;;;23.00;53.40;;;;;;5004201;28;20551;-73
2023/07/23 09:18:47;;;;;;;4.47;1.73;;;23.00;53.30;;;;;;4993182;28;20924;-73
2023/07/23 09:21:32;;;;;;;2.73;1.70;;;22.90;53.30;;;;;;4994963;28;20462;-73
2023/07/23 09:24:18;;;;;;;3.10;1.80;;;22.80;54.90;;;;;;4993903;28;20450;-73
2023/07/23 09:27:10;;;;;;;11.30;2.23;;;22.80;53.80;;;;;;4997789;28;20462;-71
2023/07/23 09:29:55;;;;;;;4.00;2.20;;;22.90;54.50;;;;;;4998946;28;20449;-73
2023/07/23 09:32:41;;;;;;;3.47;2.13;;;22.80;54.90;;;;;;4999542;28;20551;-73
2023/07/23 09:35:30;;;;;;;6.73;2.97;;;22.80;54.50;;;;;;4998811;28;20447;-73
2023/07/23 09:38:15;;;;;;;9.70;1.97;;;23.00;58.30;;;;;;5004049;28;21112;-73
2023/07/23 09:41:01;;;;;;;4.30;1.87;;;23.00;54.50;;;;;;5010322;28;20839;-73
2023/07/23 09:43:47;;;;;;;6.13;1.53;;;23.10;56.60;;;;;;5012981;28;20503;-73
2023/07/23 09:46:33;;;;;;;4.17;2.83;;;23.20;54.80;;;;;;5007071;28;20600;-72
2023/07/23 09:49:24;;;;;;;3.20;2.27;;;23.30;55.00;;;;;;5010468;28;20545;-72
2023/07/23 09:52:10;;;;;;;2.67;1.80;;;23.20;53.60;;;;;;5001290;28;20501;-73
2023/07/23 09:54:56;;;;;;;9.27;1.83;;;23.30;54.30;;;;;;5001726;28;20510;-73
2023/07/23 09:57:45;;;;;;;7.30;1.60;;;23.30;54.10;;;;;;5014936;28;20452;-73
2023/07/23 10:00:32;;;;;;;3.30;1.90;;;23.30;50.80;;;;;;5004419;28;20477;-73
2023/07/23 10:03:19;;;;;;;4.00;1.87;;;23.10;52.80;;;;;;5006120;28;20806;-74
2023/07/23 10:06:04;;;;;;;3.47;2.00;;;23.00;53.20;;;;;;5002952;28;20557;-73
2023/07/23 10:08:50;;;;;;;4.13;1.97;;;23.10;53.20;;;;;;5004588;28;20597;-73
2023/07/23 10:11:36;;;;;;;5.70;1.77;;;23.00;51.80;;;;;;5015319;28;20484;-73
2023/07/23 10:14:21;;;;;;;2.73;1.70;;;22.90;51.40;;;;;;5013472;28;20520;-73
2023/07/23 10:17:09;;;;;;;2.63;1.70;;;22.90;50.40;;;;;;5001872;28;21478;-73
2023/07/23 10:19:57;;;;;;;4.70;1.77;;;22.90;50.80;;;;;;5008933;28;20969;-73
2023/07/23 10:22:46;;;;;;;4.77;1.73;;;22.90;50.00;;;;;;5006480;28;20458;-73
2023/07/23 10:25:33;;;;;;;3.77;1.70;;;23.10;46.40;;;;;;5010172;28;20449;-73
2023/07/23 10:28:23;;;;;;;4.40;1.83;;;23.20;45.90;;;;;;5010177;28;20469;-73
2023/07/23 10:31:22;;;;;;;7.70;1.63;;;23.50;45.40;;;;;;5007799;28;20481;-73
2023/07/23 10:34:38;;;;;;;4.40;1.57;;;23.80;40.60;;;;;;5017187;28;20802;-73
2023/07/23 10:37:25;;;;;;;3.80;2.23;;;23.90;40.40;;;;;;5009694;28;21156;-73
2023/07/23 10:40:10;;;;;;;3.40;1.63;;;24.00;40.20;;;;;;5010199;28;20478;-73
2023/07/23 10:43:12;;;;;;;3.73;1.70;;;24.10;40.50;;;;;;5005143;28;20501;-73
2023/07/23 10:46:02;;;;;;;3.60;1.57;;;24.10;40.50;;;;;;5017237;28;20809;-73
2023/07/23 10:48:49;;;;;;;4.63;1.40;;;24.30;39.90;;;;;;5014919;28;20454;-74
2023/07/23 10:51:42;;;;;;;5.30;2.20;;;24.40;41.50;;;;;;5018137;28;20493;-73
2023/07/23 10:54:31;;;;;;;3.00;1.90;;;24.40;37.00;;;;;;5015673;28;20923;-73
2023/07/23 10:57:24;;;;;;;5.40;2.30;;;24.50;36.50;;;;;;5005821;28;20454;-73
2023/07/23 11:00:20;;;;;;;3.77;2.10;;;24.60;34.20;;;;;;5012880;28;20620;-73
2023/07/23 11:03:08;;;;;;;5.07;1.97;;;24.50;33.30;;;;;;5008652;28;20444;-73
2023/07/23 11:05:54;;;;;;;10.27;1.70;;;24.60;33.50;;;;;;5012638;28;20456;-73
2023/07/23 11:08:48;;;;;;;6.33;1.87;;;24.50;34.10;;;;;;5012692;28;20449;-72
2023/07/23 11:11:40;;;;;;;3.10;1.83;;;24.60;32.80;;;;;;5018696;28;20490;-73
2023/07/23 11:14:27;;;;;;;3.40;1.73;;;24.70;32.20;;;;;;5013177;28;20488;-73
2023/07/23 11:17:12;;;;;;;3.67;2.07;;;24.80;32.80;;;;;;5008670;28;20974;-73
2023/07/23 11:19:58;;;;;;;8.03;2.27;;;24.90;29.50;;;;;;5011247;28;20454;-74
2023/07/23 11:22:43;;;;;;;2.67;1.47;;;25.00;27.60;;;;;;5013627;28;20957;-73
2023/07/23 11:25:29;;;;;;;6.83;1.90;;;25.10;29.70;;;;;;5016769;28;20969;-73
2023/07/23 11:28:17;;;;;;;5.40;1.60;;;25.20;27.90;;;;;;5017570;28;20489;-73
2023/07/23 11:31:04;;;;;;;3.77;1.60;;;25.10;25.20;;;;;;5015321;28;20464;-73
2023/07/23 11:33:49;;;;;;;3.07;1.80;;;24.90;24.70;;;;;;5013604;28;20464;-73
2023/07/23 11:36:36;;;;;;;4.23;1.60;;;24.70;24.80;;;;;;5015968;28;20535;-73
2023/07/23 11:39:23;;;;;;;6.43;1.77;;;24.70;24.90;;;;;;5016496;28;20495;-73
2023/07/23 11:42:16;;;;;;;2.47;1.73;;;24.60;23.50;;;;;;5002400;28;20972;-73
2023/07/23 11:45:04;;;;;;;3.60;1.90;;;24.50;23.60;;;;;;5015057;28;20865;-73
2023/07/23 11:47:51;;;;;;;4.67;2.10;;;24.50;24.70;;;;;;5001324;28;20518;-73
2023/07/23 11:50:36;;;;;;;4.00;1.57;;;24.50;25.00;;;;;;5014680;28;20535;-73
2023/07/23 11:53:32;;;;;;;3.87;2.30;;;24.50;24.30;;;;;;5005403;28;20576;-73
2023/07/23 11:56:18;;;;;;;3.13;1.73;;;24.60;23.40;;;;;;5007908;28;20464;-73
2023/07/23 11:59:05;;;;;;;3.57;1.80;;;24.60;22.30;;;;;;5005933;28;20606;-73
2023/07/23 12:01:56;;;;;;;3.57;2.17;;;24.70;22.90;;;;;;5001450;28;20464;-73
2023/07/23 12:04:41;;;;;;;3.60;2.40;;;24.80;22.40;;;;;;5012145;28;20533;-73
2023/07/23 12:07:26;;;;;;;11.30;3.13;;;24.80;23.00;;;;;;5007219;28;20960;-73
2023/07/23 12:10:14;;;;;;;6.33;2.23;;;24.80;22.70;;;;;;5005640;28;20461;-73
2023/07/23 12:13:07;;;;;;;2.93;1.87;;;24.90;23.50;;;;;;5003656;28;20603;-74
2023/07/23 12:15:57;;;;;;;4.60;2.20;;;24.90;22.70;;;;;;5005828;28;20449;-73
2023/07/23 12:18:47;;;;;;;3.13;1.50;;;24.90;23.50;;;;;;5014519;28;20826;-73
2023/07/23 12:21:37;;;;;;;4.30;2.40;;;24.90;23.80;;;;;;5012441;28;20552;-73
2023/07/23 12:24:26;;;;;;;7.00;2.40;;;25.00;24.60;;;;;;5014417;28;20809;-73
2023/07/23 12:27:11;;;;;;;3.00;1.83;;;25.00;23.10;;;;;;5006466;28;20590;-72
2023/07/23 12:29:56;;;;;;;3.10;1.90;;;25.00;23.20;;;;;;5006343;28;20937;-73
2023/07/23 12:32:42;;;;;;;2.97;1.70;;;25.00;23.10;;;;;;5002699;28;20474;-74
2023/07/23 12:35:29;;;;;;;7.30;2.00;;;25.10;25.30;;;;;;5017345;28;20469;-73
2023/07/23 12:38:14;;;;;;;4.80;1.67;;;25.20;24.50;;;;;;5014636;28;20447;-74
2023/07/23 12:41:00;;;;;;;3.77;1.80;;;25.30;24.60;;;;;;5012412;28;20512;-73
2023/07/23 12:43:46;;;;;;;3.40;2.20;;;25.40;22.80;;;;;;5015551;28;20506;-73
2023/07/23 12:46:31;;;;;;;3.43;1.80;;;25.30;23.20;;;;;;5020179;28;20448;-73
2023/07/23 12:49:17;;;;;;;3.60;2.20;;;25.20;23.30;;;;;;5015855;28;20441;-74
2023/07/23 12:52:04;;;;;;;7.00;2.47;;;25.20;22.10;;;;;;5006227;28;20483;-73
2023/07/23 12:54:50;;;;;;;4.20;2.47;;;25.20;23.30;;;;;;5005891;28;21097;-72
2023/07/23 12:57:35;;;;;;;6.30;3.03;;;25.10;21.90;;;;;;5012037;28;20514;-73
2023/07/23 13:00:21;;;;;;;3.17;2.30;;;25.20;22.70;;;;;;5013305;28;20460;-73
2023/07/23 13:03:06;;;;;;;3.77;2.60;;;25.20;21.50;;;;;;5007427;28;20924;-73
2023/07/23 13:05:51;;;;;;;5.20;2.17;;;25.30;21.50;;;;;;5005210;28;20488;-73
2023/07/23 13:08:38;;;;;;;4.30;2.50;;;25.20;22.50;;;;;;5000850;28;20457;-73
2023/07/23 13:11:23;;;;;;;3.30;2.20;;;25.30;21.20;;;;;;4999047;28;20461;-73
2023/07/23 13:14:09;;;;;;;7.43;2.90;;;25.30;22.30;;;;;;4997843;28;20495;-73
2023/07/23 13:16:55;;;;;;;5.63;2.93;;;25.20;20.50;;;;;;5009307;28;20494;-73
2023/07/23 13:19:40;;;;;;;6.30;2.57;;;25.20;21.40;;;;;;5013001;28;20451;-74
2023/07/23 13:22:25;;;;;;;8.30;2.80;;;25.10;21.10;;;;;;5003877;28;20446;-74
2023/07/23 13:25:12;;;;;;;10.97;2.70;;;25.10;21.60;;;;;;5005093;28;20454;-73
2023/07/23 13:27:58;;;;;;;4.27;2.63;;;25.10;22.80;;;;;;5002063;28;20445;-74
2023/07/23 13:30:43;;;;;;;4.37;2.90;;;25.20;22.10;;;;;;5008820;28;20466;-73
2023/07/23 13:33:29;;;;;;;4.50;2.70;;;25.30;21.80;;;;;;5004987;28;20475;-73
2023/07/23 13:36:15;;;;;;;3.67;2.80;;;25.30;22.60;;;;;;5005648;28;20440;-73
2023/07/23 13:39:00;;;;;;;3.47;2.43;;;25.50;22.10;;;;;;5000431;28;20446;-74
2023/07/23 13:41:47;;;;;;;6.30;2.90;;;25.60;23.30;;;;;;5008242;28;20835;-73
2023/07/23 13:44:33;;;;;;;5.37;2.80;;;25.80;22.20;;;;;;5011713;28;20441;-73
2023/07/23 13:47:18;;;;;;;6.00;3.50;;;25.80;21.70;;;;;;5011952;28;20457;-73
2023/07/23 13:50:04;;;;;;;4.57;2.80;;;25.70;20.60;;;;;;5014733;28;20994;-73
2023/07/23 13:52:50;;;;;;;4.57;2.83;;;25.60;21.40;;;;;;5003907;28;20852;-73
2023/07/23 13:55:35;;;;;;;4.73;3.00;;;25.50;21.60;;;;;;5007771;28;20521;-73
2023/07/23 13:58:22;;;;;;;4.17;3.27;;;25.50;22.70;;;;;;5008065;28;20450;-73
2023/07/23 14:01:08;;;;;;;5.77;3.10;;;25.50;21.80;;;;;;5014477;28;21036;-73
2023/07/23 14:03:53;;;;;;;3.93;2.53;;;25.50;21.70;;;;;;5003580;28;20814;-73
2023/07/23 14:06:38;;;;;;;4.20;2.57;;;25.40;21.70;;;;;;5010687;28;20441;-73
2023/07/23 14:09:24;;;;;;;4.13;2.60;;;25.40;22.80;;;;;;5005761;28;20442;-72
2023/07/23 14:12:09;;;;;;;4.90;3.00;;;25.30;22.90;;;;;;5010301;28;20467;-73
2023/07/23 14:14:56;;;;;;;4.40;2.93;;;25.30;22.80;;;;;;5012853;28;20960;-73
2023/07/23 14:17:42;;;;;;;4.60;2.60;;;25.30;23.40;;;;;;5015925;28;21157;-73
2023/07/23 14:20:27;;;;;;;5.77;3.30;;;25.30;24.20;;;;;;5021024;28;20484;-73
2023/07/23 14:23:13;;;;;;;4.20;2.60;;;25.30;23.30;;;;;;5010671;28;20449;-73
2023/07/23 14:25:58;;;;;;;4.00;2.43;;;25.30;23.20;;;;;;5013952;28;20488;-73